createdAt,value
2018-02-16T00:00:30.242Z,42.22
2018-02-16T00:02:57.759Z,39.63
2018-02-16T00:05:25.286Z,38.95
2018-02-16T00:07:52.772Z,43.28
2018-02-16T00:10:21.042Z,38.35
2018-02-16T00:12:49.314Z,40.65
2018-02-16T00:15:17.550Z,43.83
2018-02-16T00:17:45.047Z,41.90
2018-02-16T00:20:13.361Z,42.95
2018-02-16T00:22:40.842Z,41.80
2018-02-16T00:25:08.314Z,36.80
2018-02-16T00:27:35.794Z,40.12
2018-02-16T00:30:04.067Z,43.78
2018-02-16T00:32:32.297Z,46.28
2018-02-16T00:34:59.777Z,49.78
2018-02-16T00:37:27.291Z,50.10
2018-02-16T00:39:54.795Z,52.13
2018-02-16T00:42:22.273Z,48.30
2018-02-16T00:44:50.529Z,47.62
2018-02-16T00:47:18.002Z,47.33
2018-02-16T00:49:46.266Z,46.65
2018-02-16T00:52:14.591Z,46.75
2018-02-16T00:54:42.053Z,48.10
2018-02-16T00:57:09.542Z,47.10
2018-02-16T00:59:37.022Z,46.83
2018-02-16T01:02:04.513Z,45.40
2018-02-16T01:04:31.978Z,47.45
2018-02-16T01:06:59.450Z,43.90
2018-02-16T01:09:26.965Z,47.33
2018-02-16T01:11:55.213Z,44.03
2018-02-16T01:14:22.675Z,39.47
2018-02-16T01:16:50.945Z,37.92
2018-02-16T01:19:21.226Z,41.97
2018-02-16T01:21:48.706Z,38.78
2018-02-16T01:24:16.303Z,40.15
2018-02-16T01:26:44.529Z,38.53
2018-02-16T01:29:11.989Z,40.72
2018-02-16T01:31:39.686Z,41.03
2018-02-16T01:34:07.186Z,45.33
2018-02-16T01:36:34.667Z,43.20
2018-02-16T01:39:02.191Z,43.53
2018-02-16T01:41:29.662Z,43.53
2018-02-16T01:43:57.153Z,43.47
2018-02-16T01:46:24.657Z,41.28
2018-02-16T01:48:52.129Z,42.88
2018-02-16T01:51:19.607Z,43.05
2018-02-16T01:53:47.108Z,43.45
2018-02-16T01:56:15.341Z,42.45
2018-02-16T01:58:42.813Z,40.75
2018-02-16T02:01:10.322Z,40.20
2018-02-16T02:03:37.787Z,39.00
2018-02-16T02:06:05.254Z,40.30
2018-02-16T02:08:32.744Z,39.17
2018-02-16T02:11:00.214Z,40.75
2018-02-16T02:13:28.450Z,38.60
2018-02-16T02:15:55.962Z,40.28
2018-02-16T02:18:24.194Z,38.72
2018-02-16T02:20:51.679Z,35.75
2018-02-16T02:23:19.935Z,37.58
2018-02-16T02:25:48.179Z,37.80
2018-02-16T02:28:15.650Z,42.03
2018-02-16T02:30:43.234Z,39.95
2018-02-16T02:33:10.708Z,42.55
2018-02-16T02:35:38.943Z,41.40
2018-02-16T02:38:06.434Z,43.10
2018-02-16T02:40:34.690Z,39.88
2018-02-16T02:43:02.149Z,39.60
2018-02-16T02:45:30.424Z,39.25
2018-02-16T02:47:57.886Z,41.22
2018-02-16T02:50:26.135Z,39.67
2018-02-16T02:52:53.665Z,40.88
2018-02-16T02:55:21.142Z,39.75
2018-02-16T02:57:48.611Z,39.30
2018-02-16T03:00:16.114Z,38.95
2018-02-16T03:02:43.615Z,35.90
2018-02-16T03:05:11.080Z,41.40
2018-02-16T03:07:40.098Z,41.42
2018-02-16T03:10:08.341Z,40.12
2018-02-16T03:12:35.801Z,45.30
2018-02-16T03:15:03.478Z,38.10
2018-02-16T03:17:31.001Z,40.22
2018-02-16T03:19:58.485Z,40.63
2018-02-16T03:22:26.157Z,38.80
2018-02-16T03:24:53.637Z,39.50
2018-02-16T03:27:21.870Z,37.37
2018-02-16T03:29:49.353Z,36.00
2018-02-16T03:32:17.591Z,37.13
2018-02-16T03:34:45.063Z,36.58
2018-02-16T03:37:12.542Z,36.30
2018-02-16T03:39:40.003Z,35.03
2018-02-16T03:42:08.265Z,34.80
2018-02-16T03:44:36.511Z,32.45
2018-02-16T03:47:03.980Z,33.60
2018-02-16T03:49:32.263Z,32.42
2018-02-16T03:51:59.741Z,31.27
2018-02-16T03:54:27.998Z,30.53
2018-02-16T03:56:55.484Z,34.10
2018-02-16T03:59:23.716Z,36.50
2018-02-16T04:01:51.198Z,35.80
2018-02-16T04:04:18.676Z,36.50
2018-02-16T04:06:46.159Z,35.28
2018-02-16T04:09:13.779Z,35.43
2018-02-16T04:11:42.646Z,35.80
2018-02-16T04:14:10.117Z,38.45
2018-02-16T04:16:38.378Z,38.35
2018-02-16T04:19:05.845Z,37.35
2018-02-16T04:21:33.337Z,38.28
2018-02-16T04:24:00.822Z,39.72
2018-02-16T04:26:28.277Z,37.70
2018-02-16T04:28:55.771Z,34.17
2018-02-16T04:31:23.266Z,36.47
2018-02-16T04:33:50.734Z,35.53
2018-02-16T04:36:18.222Z,35.95
2018-02-16T04:38:45.689Z,34.40
2018-02-16T04:41:13.480Z,32.78
2018-02-16T04:43:41.706Z,35.67
2018-02-16T04:46:09.186Z,35.00
2018-02-16T04:48:37.442Z,37.70
2018-02-16T04:51:04.914Z,35.58
2018-02-16T04:53:32.386Z,35.85
2018-02-16T04:56:00.653Z,37.00
2018-02-16T04:58:28.130Z,36.28
2018-02-16T05:00:56.415Z,34.78
2018-02-16T05:03:23.858Z,35.13
2018-02-16T05:05:52.094Z,33.97
2018-02-16T05:08:19.567Z,36.28
2018-02-16T05:10:47.234Z,33.95
2018-02-16T05:13:14.704Z,33.08
2018-02-16T05:15:42.945Z,32.80
2018-02-16T05:18:10.444Z,35.17
2018-02-16T05:20:38.678Z,32.40
2018-02-16T05:23:07.022Z,32.47
2018-02-16T05:25:34.529Z,34.28
2018-02-16T05:28:02.014Z,35.90
2018-02-16T05:30:29.494Z,33.05
2018-02-16T05:32:57.018Z,32.03
2018-02-16T05:35:25.253Z,34.33
2018-02-16T05:37:52.730Z,31.48
2018-02-16T05:40:20.226Z,32.08
2018-02-16T05:42:47.699Z,31.45
2018-02-16T05:45:15.170Z,31.55
2018-02-16T05:47:42.647Z,33.30
2018-02-16T05:50:10.149Z,32.47
2018-02-16T05:52:37.631Z,32.95
2018-02-16T05:55:05.102Z,32.03
2018-02-16T05:57:32.571Z,32.05
2018-02-16T06:00:00.050Z,33.15
2018-02-16T06:02:27.570Z,32.38
2018-02-16T06:04:55.029Z,32.45
2018-02-16T06:07:22.502Z,30.15
2018-02-16T06:09:50.010Z,30.55
2018-02-16T06:12:18.237Z,30.62
2018-02-16T06:14:45.733Z,30.20
2018-02-16T06:17:13.963Z,31.45
2018-02-16T06:19:41.462Z,31.73
2018-02-16T06:22:08.954Z,31.30
2018-02-16T06:24:36.428Z,32.35
2018-02-16T06:27:03.918Z,33.97
2018-02-16T06:29:32.158Z,31.20
2018-02-16T06:31:59.630Z,32.05
2018-02-16T06:34:27.133Z,30.33
2018-02-16T06:36:54.615Z,32.85
2018-02-16T06:39:22.085Z,30.92
2018-02-16T06:41:49.604Z,32.30
2018-02-16T06:44:17.079Z,30.37
2018-02-16T06:46:44.544Z,29.33
2018-02-16T06:49:12.031Z,29.98
2018-02-16T06:51:39.530Z,29.00
2018-02-16T06:54:06.990Z,28.27
2018-02-16T06:56:34.478Z,28.48
2018-02-16T06:59:01.941Z,27.05
2018-02-16T07:01:29.434Z,27.73
2018-02-16T07:03:57.677Z,23.83
2018-02-16T07:06:25.142Z,24.37
2018-02-16T07:08:52.627Z,23.55
2018-02-16T07:11:20.878Z,22.80
2018-02-16T07:13:48.359Z,21.75
2018-02-16T07:16:16.593Z,20.73
2018-02-16T07:18:44.095Z,19.95
2018-02-16T07:21:11.571Z,17.85
2018-02-16T07:23:39.035Z,16.00
2018-02-16T07:26:06.530Z,15.70
2018-02-16T07:28:34.003Z,14.80
2018-02-16T07:31:01.482Z,15.77
2018-02-16T07:33:29.717Z,14.27
2018-02-16T07:35:57.186Z,13.00
2018-02-16T07:38:24.662Z,12.87
2018-02-16T07:40:52.894Z,12.40
2018-02-16T07:43:20.353Z,13.03
2018-02-16T07:45:47.830Z,12.67
2018-02-16T07:48:15.323Z,11.50
2018-02-16T07:50:42.796Z,12.63
2018-02-16T07:53:10.278Z,10.93
2018-02-16T07:55:37.747Z,11.40
2018-02-16T07:58:05.262Z,12.10
2018-02-16T08:00:32.727Z,11.20
2018-02-16T08:03:00.194Z,11.00
2018-02-16T08:05:27.687Z,9.13
2018-02-16T08:07:55.144Z,9.57
2018-02-16T08:10:22.614Z,8.43
2018-02-16T08:12:50.863Z,9.70
2018-02-16T08:15:19.303Z,10.17
2018-02-16T08:17:46.755Z,9.00
2018-02-16T08:20:14.366Z,8.63
2018-02-16T08:22:41.837Z,8.13
2018-02-16T08:25:10.070Z,9.10
2018-02-16T08:27:37.651Z,8.50
2018-02-16T08:30:05.115Z,10.37
2018-02-16T08:32:32.586Z,7.73
2018-02-16T08:35:00.950Z,8.80
2018-02-16T08:37:28.414Z,7.97
2018-02-16T08:39:55.876Z,7.90
2018-02-16T08:42:24.137Z,6.93
2018-02-16T08:44:51.603Z,7.67
2018-02-16T08:47:19.826Z,6.93
2018-02-16T08:49:47.337Z,8.43
2018-02-16T08:52:14.779Z,7.47
2018-02-16T08:54:42.254Z,9.00
2018-02-16T08:57:10.506Z,8.37
2018-02-16T08:59:38.085Z,7.20
2018-02-16T09:02:06.314Z,7.50
2018-02-16T09:04:34.706Z,6.87
2018-02-16T09:07:03.018Z,8.23
2018-02-16T09:09:30.470Z,7.13
2018-02-16T09:11:58.703Z,6.60
2018-02-16T09:14:26.316Z,8.30
2018-02-16T09:16:54.516Z,7.07
2018-02-16T09:19:21.984Z,7.80
2018-02-16T09:21:49.595Z,7.33
2018-02-16T09:24:19.211Z,6.80
2018-02-16T09:26:48.895Z,6.40
2018-02-16T09:29:18.803Z,7.77
2018-02-16T09:31:46.932Z,6.33
2018-02-16T09:34:14.450Z,6.70
2018-02-16T09:36:43.362Z,6.67
2018-02-16T09:39:12.015Z,5.70
2018-02-16T09:41:39.951Z,6.77
2018-02-16T09:44:07.414Z,6.30
2018-02-16T09:46:34.862Z,6.20
2018-02-16T09:49:02.338Z,5.47
2018-02-16T09:51:29.791Z,6.70
2018-02-16T09:53:57.389Z,6.47
2018-02-16T09:56:25.630Z,8.07
2018-02-16T09:58:53.092Z,6.60
2018-02-16T10:01:20.545Z,5.93
2018-02-16T10:03:48.030Z,6.30
2018-02-16T10:06:16.277Z,6.70
2018-02-16T10:08:46.699Z,6.50
2018-02-16T10:11:14.178Z,5.57
2018-02-16T10:13:42.414Z,6.03
2018-02-16T10:16:09.870Z,5.60
2018-02-16T10:18:37.345Z,5.43
2018-02-16T10:21:04.818Z,5.90
2018-02-16T10:23:32.298Z,7.57
2018-02-16T10:25:59.782Z,5.50
2018-02-16T10:28:27.243Z,6.90
2018-02-16T10:30:54.734Z,6.23
2018-02-16T10:33:22.196Z,5.33
2018-02-16T10:35:49.660Z,5.80
2018-02-16T10:38:17.361Z,6.30
2018-02-16T10:40:44.872Z,6.93
2018-02-16T10:43:12.334Z,6.47
2018-02-16T10:45:40.575Z,5.83
2018-02-16T10:48:08.039Z,6.30
2018-02-16T10:50:35.508Z,6.30
2018-02-16T10:53:02.991Z,5.23
2018-02-16T10:55:31.213Z,6.07
2018-02-16T10:57:58.681Z,5.10
2018-02-16T11:00:31.754Z,6.23
2018-02-16T11:06:00.802Z,6.60
2018-02-16T11:08:33.862Z,5.77
2018-02-16T11:11:01.342Z,5.90
2018-02-16T11:13:28.803Z,5.40
2018-02-16T11:15:56.278Z,5.50
2018-02-16T11:18:24.540Z,5.50
2018-02-16T11:20:52.006Z,5.50
2018-02-16T11:23:19.470Z,5.23
2018-02-16T11:25:47.727Z,5.60
2018-02-16T11:28:15.187Z,4.90
2018-02-16T11:30:42.650Z,5.13
2018-02-16T11:33:10.194Z,4.57
2018-02-16T11:35:37.658Z,5.17
2018-02-16T11:38:05.891Z,4.43
2018-02-16T11:40:33.374Z,3.70
2018-02-16T11:43:00.847Z,4.17
2018-02-16T11:45:29.097Z,4.03
2018-02-16T11:47:56.563Z,3.87
2018-02-16T11:50:24.488Z,4.00
2018-02-16T11:52:51.998Z,4.00
2018-02-16T11:55:19.482Z,3.90
2018-02-16T11:57:47.186Z,3.77
2018-02-16T12:00:14.642Z,4.97
2018-02-16T12:02:42.292Z,3.70
2018-02-16T12:05:09.763Z,3.40
2018-02-16T12:07:37.226Z,3.33
2018-02-16T12:10:04.719Z,3.10
2018-02-16T12:12:32.947Z,3.20
2018-02-16T12:15:00.412Z,3.10
2018-02-16T12:17:27.905Z,3.67
2018-02-16T12:19:56.138Z,4.80
2018-02-16T12:22:23.607Z,3.73
2018-02-16T12:24:51.086Z,3.77
2018-02-16T12:27:19.306Z,3.90
2018-02-16T12:29:46.788Z,3.30
2018-02-16T12:32:14.266Z,3.30
2018-02-16T12:34:41.733Z,3.90
2018-02-16T12:37:10.061Z,4.67
2018-02-16T12:39:37.544Z,3.83
2018-02-16T12:42:05.002Z,4.50
2018-02-16T12:44:32.466Z,3.80
2018-02-16T12:47:00.726Z,3.80
2018-02-16T12:49:28.191Z,3.20
2018-02-16T12:51:56.649Z,3.43
2018-02-16T12:54:24.746Z,3.10
2018-02-16T12:56:52.214Z,4.10
2018-02-16T12:59:20.466Z,3.23
2018-02-16T13:01:47.929Z,3.90
2018-02-16T13:04:18.437Z,4.10
2018-02-16T13:06:46.715Z,3.37
2018-02-16T13:09:14.178Z,3.67
2018-02-16T13:11:41.654Z,3.23
2018-02-16T13:14:09.158Z,3.70
2018-02-16T13:16:36.627Z,3.03
2018-02-16T13:19:04.108Z,3.63
2018-02-16T13:21:31.595Z,3.83
2018-02-16T13:23:59.827Z,4.90
2018-02-16T13:26:27.332Z,4.20
2018-02-16T13:28:55.551Z,3.90
2018-02-16T13:31:23.010Z,3.90
2018-02-16T13:33:50.487Z,4.57
2018-02-16T13:38:51.690Z,3.80
2018-02-16T13:41:19.762Z,4.27
2018-02-16T13:43:47.998Z,3.70
2018-02-16T13:46:15.461Z,4.40
2018-02-16T13:48:42.928Z,3.97
2018-02-16T13:51:10.398Z,3.23
2018-02-16T13:53:38.655Z,4.00
2018-02-16T13:56:06.107Z,3.67
2018-02-16T13:58:33.582Z,3.20
2018-02-16T14:01:01.822Z,3.27
2018-02-16T14:03:29.834Z,3.23
2018-02-16T14:05:57.285Z,3.37
2018-02-16T14:08:25.543Z,3.00
2018-02-16T14:10:53.771Z,2.90
2018-02-16T14:13:21.252Z,3.10
2018-02-16T14:15:48.722Z,3.10
2018-02-16T14:18:16.179Z,2.50
2018-02-16T14:20:43.654Z,3.30
2018-02-16T14:23:11.889Z,3.20
2018-02-16T14:25:39.349Z,3.03
2018-02-16T14:28:06.818Z,3.60
2018-02-16T14:30:34.293Z,3.17
2018-02-16T14:33:02.286Z,3.00
2018-02-16T14:35:30.666Z,3.70
2018-02-16T14:37:58.137Z,2.93
2018-02-16T14:40:25.591Z,3.50
2018-02-16T14:42:53.066Z,2.77
2018-02-16T14:45:20.526Z,3.13
2018-02-16T14:47:48.006Z,2.80
2018-02-16T14:50:15.462Z,3.07
2018-02-16T14:52:42.922Z,2.53
2018-02-16T14:55:10.408Z,3.10
2018-02-16T14:57:38.626Z,3.00
2018-02-16T15:00:08.489Z,2.90
2018-02-16T15:02:36.736Z,2.90
2018-02-16T15:05:04.204Z,3.87
2018-02-16T15:07:32.438Z,4.17
2018-02-16T15:09:59.908Z,3.17
2018-02-16T15:12:27.418Z,3.20
2018-02-16T15:14:55.656Z,2.93
2018-02-16T15:17:23.103Z,2.93
2018-02-16T15:19:50.616Z,3.40
2018-02-16T15:22:18.838Z,3.20
2018-02-16T15:24:46.296Z,3.17
2018-02-16T15:27:13.787Z,2.40
2018-02-16T15:29:42.018Z,3.00
2018-02-16T15:32:09.478Z,3.30
2018-02-16T15:34:36.953Z,4.00
2018-02-16T15:37:04.406Z,2.73
2018-02-16T15:39:31.858Z,2.13
2018-02-16T15:41:59.331Z,2.90
2018-02-16T15:44:27.566Z,4.10
2018-02-16T15:46:55.054Z,3.10
2018-02-16T15:49:22.531Z,2.77
2018-02-16T15:51:50.752Z,2.40
2018-02-16T15:54:18.244Z,2.80
2018-02-16T15:56:46.468Z,3.00
2018-02-16T15:59:13.927Z,2.60
2018-02-16T16:01:41.431Z,2.90
2018-02-16T16:04:08.878Z,3.10
2018-02-16T16:06:36.337Z,3.40
2018-02-16T16:09:03.820Z,2.97
2018-02-16T16:11:32.074Z,2.77
2018-02-16T16:13:59.521Z,2.80
2018-02-16T16:16:27.778Z,4.30
2018-02-16T16:18:55.248Z,5.90
2018-02-16T16:21:22.708Z,4.13
2018-02-16T16:23:50.176Z,4.47
2018-02-16T16:26:18.414Z,5.13
2018-02-16T16:28:45.909Z,3.73
2018-02-16T16:31:14.155Z,4.00
2018-02-16T16:33:41.638Z,3.63
2018-02-16T16:36:09.906Z,4.00
2018-02-16T16:38:37.386Z,3.10
2018-02-16T16:41:05.621Z,3.40
2018-02-16T16:43:33.114Z,3.80
2018-02-16T16:46:01.347Z,3.10
2018-02-16T16:48:28.806Z,4.47
2018-02-16T16:50:56.894Z,3.53
2018-02-16T16:53:24.358Z,4.20
2018-02-16T16:55:52.590Z,3.20
2018-02-16T16:58:20.072Z,3.40
2018-02-16T17:00:47.540Z,4.27
2018-02-16T17:03:15.021Z,4.43
2018-02-16T17:05:43.258Z,4.43
2018-02-16T17:08:10.733Z,4.63
2018-02-16T17:10:38.199Z,4.07
2018-02-16T17:13:06.458Z,4.53
2018-02-16T17:15:33.918Z,4.23
2018-02-16T17:18:02.150Z,3.63
2018-02-16T17:20:29.659Z,3.13
2018-02-16T17:22:57.897Z,3.47
2018-02-16T17:25:26.338Z,3.63
2018-02-16T17:27:53.830Z,4.03
2018-02-16T17:30:21.294Z,4.90
2018-02-16T17:32:48.824Z,5.10
2018-02-16T17:35:17.027Z,5.60
2018-02-16T17:37:45.698Z,5.30
2018-02-16T17:40:13.179Z,4.57
2018-02-16T17:42:40.641Z,4.27
2018-02-16T17:45:08.135Z,4.73
2018-02-16T17:47:35.618Z,3.67
2018-02-16T17:50:03.094Z,4.30
2018-02-16T17:52:30.561Z,5.40
2018-02-16T17:54:58.049Z,5.50
2018-02-16T17:57:26.287Z,5.27
2018-02-16T17:59:54.771Z,6.10
2018-02-16T18:02:22.254Z,5.90
2018-02-16T18:04:50.496Z,5.73
2018-02-16T18:07:17.959Z,6.30
2018-02-16T18:09:45.435Z,6.20
2018-02-16T18:12:13.670Z,5.20
2018-02-16T18:14:41.138Z,6.27
2018-02-16T18:17:08.642Z,7.50
2018-02-16T18:19:36.878Z,6.93
2018-02-16T18:22:04.371Z,6.93
2018-02-16T18:24:32.608Z,6.70
2018-02-16T18:27:00.091Z,6.50
2018-02-16T18:29:28.361Z,6.80
2018-02-16T18:31:55.825Z,7.20
2018-02-16T18:34:24.055Z,7.67
2018-02-16T18:36:51.548Z,7.00
2018-02-16T18:39:20.075Z,9.03
2018-02-16T18:41:47.543Z,6.20
2018-02-16T18:44:15.030Z,5.43
2018-02-16T18:46:42.496Z,4.80
2018-02-16T18:49:09.967Z,5.40
2018-02-16T18:51:38.222Z,5.50
2018-02-16T18:54:05.696Z,5.77
2018-02-16T18:56:33.958Z,6.13
2018-02-16T18:59:01.429Z,6.80
2018-02-16T19:01:29.695Z,6.73
2018-02-16T19:03:57.154Z,5.43
2018-02-16T19:06:24.643Z,6.03
2018-02-16T19:08:52.121Z,5.97
2018-02-16T19:11:19.595Z,6.03
2018-02-16T19:13:47.078Z,6.50
2018-02-16T19:16:14.561Z,7.07
2018-02-16T19:18:42.040Z,8.03
2018-02-16T19:21:09.679Z,7.57
2018-02-16T19:23:37.183Z,7.20
2018-02-16T19:26:04.654Z,7.63
2018-02-16T19:28:32.160Z,6.90
2018-02-16T19:30:59.614Z,8.07
2018-02-16T19:33:27.082Z,7.80
2018-02-16T19:35:54.633Z,9.23
2018-02-16T19:38:22.124Z,10.30
2018-02-16T19:40:49.641Z,8.03
2018-02-16T19:43:17.139Z,7.30
2018-02-16T19:45:44.605Z,10.70
2018-02-16T19:48:12.104Z,7.10
2018-02-16T19:50:39.684Z,9.20
2018-02-16T19:53:07.178Z,10.03
2018-02-16T19:55:34.665Z,11.60
2018-02-16T19:58:02.174Z,10.70
2018-02-16T20:00:29.670Z,8.70
2018-02-16T20:02:57.908Z,9.60
2018-02-16T20:05:25.424Z,9.52
2018-02-16T20:07:52.920Z,10.40
2018-02-16T20:10:20.389Z,9.73
2018-02-16T20:12:47.892Z,10.43
2018-02-16T20:15:15.384Z,9.77
2018-02-16T20:17:43.039Z,14.87
2018-02-16T20:20:10.588Z,13.35
2018-02-16T20:22:38.064Z,11.80
2018-02-16T20:25:05.623Z,11.70
2018-02-16T20:27:33.110Z,12.52
2018-02-16T20:30:00.602Z,9.27
2018-02-16T20:32:28.080Z,7.18
2018-02-16T20:34:55.580Z,8.55
2018-02-16T20:37:23.046Z,7.85
2018-02-16T20:39:51.279Z,9.90
2018-02-16T20:42:18.770Z,8.40
2018-02-16T20:44:46.270Z,9.53
2018-02-16T20:47:13.758Z,9.25
2018-02-16T20:49:41.237Z,9.15
2018-02-16T20:52:08.731Z,7.95
2018-02-16T20:54:36.229Z,7.82
2018-02-16T20:57:03.717Z,6.10
2018-02-16T20:59:31.965Z,6.55
2018-02-16T21:01:59.467Z,6.95
2018-02-16T21:04:27.706Z,8.48
2018-02-16T21:06:55.946Z,8.68
2018-02-16T21:09:23.430Z,7.65
2018-02-16T21:11:50.922Z,8.40
2018-02-16T21:14:19.159Z,9.60
2018-02-16T21:16:46.704Z,8.30
2018-02-16T21:19:14.166Z,8.40
2018-02-16T21:21:41.635Z,8.90
2018-02-16T21:24:09.142Z,9.43
2018-02-16T21:26:36.616Z,9.32
2018-02-16T21:29:04.095Z,9.55
2018-02-16T21:31:31.611Z,8.23
2018-02-16T21:33:59.137Z,6.93
2018-02-16T21:36:26.618Z,7.72
2018-02-16T21:38:54.865Z,7.55
2018-02-16T21:41:22.346Z,8.90
2018-02-16T21:43:50.575Z,8.68
2018-02-16T21:46:18.093Z,10.50
2018-02-16T21:48:46.310Z,8.98
2018-02-16T21:51:14.743Z,8.73
2018-02-16T21:53:42.284Z,10.50
2018-02-16T21:56:09.715Z,9.32
2018-02-16T21:58:37.210Z,8.73
2018-02-16T22:01:05.460Z,9.27
2018-02-16T22:03:32.942Z,9.55
2018-02-16T22:06:01.174Z,9.73
2018-02-16T22:08:28.720Z,10.55
2018-02-16T22:10:56.220Z,11.32
2018-02-16T22:13:24.454Z,11.60
2018-02-16T22:15:51.952Z,10.70
2018-02-16T22:18:20.181Z,11.45
2018-02-16T22:20:47.721Z,10.27
2018-02-16T22:23:15.220Z,10.38
2018-02-16T22:25:42.690Z,11.25
2018-02-16T22:28:10.935Z,12.48
2018-02-16T22:30:38.449Z,13.43
2018-02-16T22:33:05.940Z,12.50
2018-02-16T22:35:33.410Z,13.90
2018-02-16T22:38:00.928Z,13.30
2018-02-16T22:40:28.497Z,12.32
2018-02-16T22:42:55.977Z,12.30
2018-02-16T22:45:23.457Z,12.60
2018-02-16T22:47:52.451Z,11.88
2018-02-16T22:50:19.943Z,12.82
2018-02-16T22:52:47.519Z,11.93
2018-02-16T22:55:14.987Z,13.85
2018-02-16T22:57:43.256Z,14.02
2018-02-16T23:00:10.735Z,13.13
2018-02-16T23:02:38.210Z,13.20
2018-02-16T23:05:05.680Z,13.52
2018-02-16T23:07:33.939Z,11.75
2018-02-16T23:10:01.408Z,13.13
2018-02-16T23:12:29.013Z,14.68
2018-02-16T23:14:56.482Z,12.77
2018-02-16T23:17:23.947Z,13.38
2018-02-16T23:19:51.461Z,13.25
2018-02-16T23:22:18.940Z,13.30
2018-02-16T23:24:46.465Z,12.52
2018-02-16T23:27:14.748Z,13.35
2018-02-16T23:29:42.993Z,13.38
2018-02-16T23:32:10.508Z,14.05
2018-02-16T23:34:38.002Z,14.10
2018-02-16T23:37:05.482Z,13.45
2018-02-16T23:39:33.750Z,14.15
2018-02-16T23:42:01.259Z,13.27
2018-02-16T23:44:28.677Z,15.13
2018-02-16T23:46:56.168Z,13.85
2018-02-16T23:49:23.679Z,12.75
2018-02-16T23:51:51.150Z,15.48
2018-02-16T23:54:18.618Z,13.73
2018-02-16T23:56:46.149Z,13.82
2018-02-16T23:59:13.611Z,13.95
